18 mai 2022

Temps Code Temps Temp. Vue Des nuages Vent METAR/SPECI
11:00
V
22 °C 10 km+ - Var   Var 3 kt METAR LFHP 180900Z AUTO VRB03KT CAVOK 22/13 Q1023
10:30
V
21 °C 10 km+ - Var   Var 2 kt METAR LFHP 180830Z AUTO VRB02KT CAVOK 21/13 Q1023
10:00
V
20 °C 10 km+ - Var   Var 2 kt METAR LFHP 180800Z AUTO VRB02KT CAVOK 20/12 Q1024
09:30
V
20 °C 10 km+ - Var   Var 2 kt METAR LFHP 180730Z AUTO VRB02KT CAVOK 20/12 Q1024
09:00
V
18 °C 10 km+ - Var   Var 2 kt METAR LFHP 180700Z AUTO VRB02KT CAVOK 18/12 Q1024

17 mai 2022

Temps Code Temps Temp. Vue Des nuages Vent METAR/SPECI
21:00
V
23 °C 10 km+ - 300°   300° 5 kt METAR LFHP 171900Z AUTO 30005KT CAVOK 23/09 Q1021
20:30
V
23 °C 10 km+ - 300°   300° 5 kt METAR LFHP 171830Z AUTO 30005KT CAVOK 23/09 Q1020
20:00
V
24 °C 10 km+ - 300°   300° 7 kt METAR LFHP 171800Z AUTO 30007KT CAVOK 24/09 Q1020
19:30
V
25 °C 10 km+ - 330°   330° 6 kt METAR LFHP 171730Z AUTO 33006KT CAVOK 25/10 Q1020
19:00
V
26 °C 10 km+ - 320°   320° 7 kt METAR LFHP 171700Z AUTO 32007KT 280V350 CAVOK 26/09 Q1020
18:30
V
26 °C 10 km+ - 350°   350° 5 kt METAR LFHP 171630Z AUTO 35005KT 270V050 CAVOK 26/08 Q1020
18:00
V
27 °C 10 km+ - 310°   310° 9 kt METAR LFHP 171600Z AUTO 31009KT 270V360 CAVOK 27/09 Q1020
17:30
V
26 °C 10 km+ - 330°   330° 7 kt METAR LFHP 171530Z AUTO 33007KT CAVOK 26/08 Q1020
17:00
V
27 °C 10 km+ - Var   Var 3 kt METAR LFHP 171500Z AUTO VRB03KT CAVOK 27/08 Q1020
16:30
V
27 °C 10 km+ - Var   Var 5 kt METAR LFHP 171430Z AUTO VRB05KT CAVOK 27/09 Q1020
16:00
V
27 °C 10 km+ - Var   Var 4 kt METAR LFHP 171400Z AUTO VRB04KT CAVOK 27/07 Q1020
15:30
V
27 °C 10 km+ - Var   Var 4 kt METAR LFHP 171330Z AUTO VRB04KT CAVOK 27/06 Q1020
15:00
V
26 °C 10 km+ - 300°   300° 8 kt METAR LFHP 171300Z AUTO 30008KT 260V340 CAVOK 26/05 Q1021
14:30
V
26 °C 10 km+ - Var   Var 3 kt METAR LFHP 171230Z AUTO VRB03KT CAVOK 26/07 Q1021
14:00
V
25 °C 10 km+ - Var   Var 3 kt METAR LFHP 171200Z AUTO VRB03KT CAVOK 25/09 Q1021
13:30
V
25 °C 10 km+ - Var   Var 4 kt METAR LFHP 171130Z AUTO VRB04KT CAVOK 25/09 Q1021
13:00
V
24 °C 10 km+ - 050°   050° 4 kt METAR LFHP 171100Z AUTO 05004KT 340V110 CAVOK 24/10 Q1021
12:30
V
23 °C 10 km+ - Var   Var 3 kt METAR LFHP 171030Z AUTO VRB03KT CAVOK 23/08 Q1022
12:00
V
23 °C 10 km+ - Var   Var 3 kt METAR LFHP 171000Z AUTO VRB03KT CAVOK 23/09 Q1022
11:30
V
22 °C 10 km+ - Var   Var 3 kt METAR LFHP 170930Z AUTO VRB03KT CAVOK 22/12 Q1022
11:00
V
20 °C 10 km+ - Var   Var 3 kt METAR LFHP 170900Z AUTO VRB03KT CAVOK 20/11 Q1022
10:30
V
19 °C 10 km+ - Var   Var 3 kt METAR LFHP 170830Z AUTO VRB03KT CAVOK 19/12 Q1022
10:00
V
18 °C 10 km+ - Var   Var 2 kt METAR LFHP 170800Z AUTO VRB02KT CAVOK 18/12 Q1022
09:30
V
17 °C 10 km+ - Var   Var 2 kt METAR LFHP 170730Z AUTO VRB02KT CAVOK 17/11 Q1022
09:00
V
16 °C 10 km+ - Var   Var 2 kt METAR LFHP 170700Z AUTO VRB02KT CAVOK 16/11 Q1022

16 mai 2022

Temps Code Temps Temp. Vue Des nuages Vent METAR/SPECI
21:00
V
21 °C 10 km+ - 290°   290° 4 kt METAR LFHP 161900Z AUTO 29004KT 240V330 CAVOK 21/09 Q1021
20:30
V
22 °C 10 km+ - 300°   300° 8 kt METAR LFHP 161830Z AUTO 30008KT CAVOK 22/09 Q1021
20:00
V
23 °C 10 km+ - 300°   300° 5 kt METAR LFHP 161800Z AUTO 30005KT 260V330 CAVOK 23/09 Q1021
19:30
V
24 °C 10 km+ - 250°   250° 3 kt METAR LFHP 161730Z AUTO 25003KT 210V290 CAVOK 24/10 Q1021
19:00
V
23 °C 10 km+ - Var   Var 2 kt METAR LFHP 161700Z AUTO VRB02KT CAVOK 23/09 Q1021
18:30
V
24 °C 10 km+ - 170°   170° 4 kt METAR LFHP 161630Z AUTO 17004KT 130V220 CAVOK 24/09 Q1021
18:00
V
24 °C 10 km+ - Var   Var 1 kt METAR LFHP 161600Z AUTO VRB01KT CAVOK 24/10 Q1021
17:30
V
24 °C 10 km+ - Var   Var 3 kt METAR LFHP 161530Z AUTO VRB03KT CAVOK 24/07 Q1021
17:00
V
25 °C 10 km+ - Var   Var 3 kt METAR LFHP 161500Z AUTO VRB03KT CAVOK 25/09 Q1020
16:30
V
26 °C 10 km+ - 340°   340° 3 kt METAR LFHP 161430Z AUTO 34003KT 300V020 CAVOK 26/09 Q1021
16:00
V
24 °C 10 km+ - 130°   130° 5 kt METAR LFHP 161400Z AUTO 13005KT 090V180 CAVOK 24/07 Q1021
15:30
V
24 °C 10 km+ - Var   Var 3 kt METAR LFHP 161330Z AUTO VRB03KT CAVOK 24/08 Q1021
15:00
V
26 °C 10 km+ - Var   Var 3 kt METAR LFHP 161300Z AUTO VRB03KT CAVOK 26/08 Q1021
14:30
V
24 °C 10 km+ - 350°   350° 8 kt METAR LFHP 161230Z AUTO 35008KT 310V040 CAVOK 24/08 Q1021
14:00
V
24 °C 10 km+ - 070°   070° 4 kt METAR LFHP 161200Z AUTO 07004KT 020V120 CAVOK 24/08 Q1021
13:30
V
24 °C 10 km+ - Var   Var 2 kt METAR LFHP 161130Z AUTO VRB02KT CAVOK 24/08 Q1022
13:00
V
23 °C 10 km+ - Var   Var 3 kt METAR LFHP 161100Z AUTO VRB03KT CAVOK 23/07 Q1022
12:30
V
22 °C 10 km+ - Var   Var 2 kt METAR LFHP 161030Z AUTO VRB02KT CAVOK 22/09 Q1022
12:00
V
21 °C 10 km+ - Var   Var 2 kt METAR LFHP 161000Z AUTO VRB02KT CAVOK 21/08 Q1022
11:30
V
21 °C 10 km+ - 030°   030° 3 kt METAR LFHP 160930Z AUTO 03003KT 310V070 CAVOK 21/08 Q1022
11:00
V
20 °C 10 km+ - Var   Var 2 kt METAR LFHP 160900Z AUTO VRB02KT CAVOK 20/07 Q1021
Données plus anciennes

Télécharge notre application

Un accès facile à toute la météo aéronautique sur ton téléphone portable et ta tablette.
Avec de nombreuses fonctionnalités non disponibles sur le site Web, comme la prise en charge hors ligne et une liste personnelle d'aéroports.